Time;durP1;ratioP1;P1;durP2;ratioP2;P2;SDS_P1;SDS_P2;PMS_P1;PMS_P2;Temp;Humidity;BMP_temperature;BMP_pressure;BME280_temperature;BME280_humidity;BME280_pressure;Samples;Min_cycle;Max_cycle;Signal;HPM_P1;HPM_P2
2021/08/16 00:01:51;;;;;;;14.75;5.75;;;18.80;99.90;;;;;;4904670;29;20058;-55
2021/08/16 00:04:17;;;;;;;14.10;6.03;;;18.80;99.90;;;;;;4904784;29;20036;-56
2021/08/16 00:06:43;;;;;;;9.90;5.65;;;18.70;99.90;;;;;;4901613;29;20032;-55
2021/08/16 00:09:09;;;;;;;11.48;6.22;;;18.60;99.90;;;;;;4876232;29;20048;-57
2021/08/16 00:11:36;;;;;;;12.82;6.18;;;18.50;99.90;;;;;;4903329;29;20431;-59
2021/08/16 00:14:02;;;;;;;13.93;6.18;;;18.40;99.90;;;;;;4900954;29;20047;-56
2021/08/16 00:16:27;;;;;;;12.82;6.18;;;18.40;99.90;;;;;;4899936;29;20032;-55
2021/08/16 00:18:53;;;;;;;19.80;6.00;;;18.30;99.90;;;;;;4908200;29;20013;-55
2021/08/16 00:21:19;;;;;;;18.65;6.88;;;18.30;99.90;;;;;;4910780;29;20031;-56
2021/08/16 00:23:44;;;;;;;13.75;6.03;;;18.30;99.90;;;;;;4909812;29;20105;-54
2021/08/16 00:26:10;;;;;;;16.50;5.53;;;18.30;99.90;;;;;;4910033;29;20056;-56
2021/08/16 00:28:36;;;;;;;10.40;5.68;;;18.30;99.90;;;;;;4899945;29;20065;-56
2021/08/16 00:31:02;;;;;;;7.78;4.85;;;18.30;99.90;;;;;;4909279;29;20032;-58
2021/08/16 00:33:27;;;;;;;12.02;4.60;;;18.40;99.90;;;;;;4901392;29;20128;-55
2021/08/16 00:35:53;;;;;;;12.85;4.40;;;18.30;99.90;;;;;;4901423;29;20162;-56
2021/08/16 00:38:18;;;;;;;11.10;4.38;;;18.30;99.90;;;;;;4901258;29;20043;-55
2021/08/16 00:40:44;;;;;;;8.70;4.45;;;18.30;99.90;;;;;;4895749;29;20555;-57
2021/08/16 00:43:10;;;;;;;7.53;3.83;;;18.20;99.90;;;;;;4899037;29;20028;-55
2021/08/16 00:45:36;;;;;;;7.53;3.75;;;18.20;99.90;;;;;;4897124;29;20024;-57
2021/08/16 00:48:03;;;;;;;7.30;3.90;;;18.20;99.90;;;;;;4899321;29;20072;-57
2021/08/16 00:50:29;;;;;;;7.32;3.88;;;18.10;99.90;;;;;;4901666;29;20119;-60
2021/08/16 00:52:56;;;;;;;6.13;3.55;;;18.10;99.90;;;;;;4886691;29;20513;-59
2021/08/16 00:55:22;;;;;;;14.05;4.05;;;18.10;99.90;;;;;;4902987;29;20154;-56
2021/08/16 00:57:47;;;;;;;7.88;3.17;;;18.10;99.90;;;;;;4903366;29;20136;-56
2021/08/16 01:00:13;;;;;;;8.98;3.13;;;18.10;99.90;;;;;;4901418;29;20111;-59
2021/08/16 01:02:41;;;;;;;6.15;3.85;;;18.00;99.90;;;;;;4904994;29;20467;-53
2021/08/16 01:05:10;;;;;;;10.90;3.00;;;18.00;99.90;;;;;;4901948;29;20559;-57
2021/08/16 01:07:35;;;;;;;7.13;2.65;;;18.00;99.90;;;;;;4904493;29;20393;-57
2021/08/16 01:10:04;;;;;;;7.38;3.05;;;18.00;99.90;;;;;;4908972;29;20035;-56
2021/08/16 01:12:32;;;;;;;10.63;3.53;;;17.90;99.90;;;;;;4910421;29;20039;-56
2021/08/16 01:14:57;;;;;;;6.82;2.72;;;17.80;99.90;;;;;;4911354;29;20032;-57
2021/08/16 01:17:23;;;;;;;6.72;3.72;;;17.80;99.90;;;;;;4905126;29;20043;-58
2021/08/16 01:19:49;;;;;;;9.18;2.72;;;17.80;99.90;;;;;;4909677;29;20115;-56
2021/08/16 01:22:16;;;;;;;6.60;2.45;;;17.70;99.90;;;;;;4901911;29;20374;-56
2021/08/16 01:24:42;;;;;;;10.10;2.42;;;17.60;99.90;;;;;;4910601;29;20020;-55
2021/08/16 01:27:09;;;;;;;8.48;2.85;;;17.50;99.90;;;;;;4907689;29;20144;-56
2021/08/16 01:29:35;;;;;;;8.32;2.85;;;17.30;99.90;;;;;;4903073;29;20118;-56
2021/08/16 01:32:02;;;;;;;12.63;2.67;;;17.30;99.90;;;;;;4905180;29;20028;-57
2021/08/16 01:34:32;;;;;;;11.77;2.85;;;17.20;99.90;;;;;;4909882;29;20564;-57
2021/08/16 01:36:59;;;;;;;6.00;2.28;;;17.20;99.90;;;;;;4906487;29;20511;-53
2021/08/16 01:39:25;;;;;;;7.72;2.78;;;17.10;99.90;;;;;;4907418;29;20480;-56
2021/08/16 01:41:51;;;;;;;9.88;2.67;;;17.00;99.90;;;;;;4903287;29;20032;-58
2021/08/16 01:44:18;;;;;;;10.50;2.10;;;16.90;99.90;;;;;;4903474;29;20060;-58
2021/08/16 01:46:44;;;;;;;9.10;2.78;;;16.80;99.90;;;;;;4899212;29;20028;-54
2021/08/16 01:49:10;;;;;;;5.80;2.00;;;16.60;99.90;;;;;;4906450;29;20055;-58
2021/08/16 01:51:36;;;;;;;7.47;2.05;;;16.50;99.90;;;;;;4909952;29;20035;-57
2021/08/16 01:54:04;;;;;;;14.45;2.72;;;16.40;99.90;;;;;;4894397;29;20076;-58
2021/08/16 01:56:29;;;;;;;9.05;2.00;;;16.40;99.90;;;;;;4908422;29;20412;-57
2021/08/16 01:58:55;;;;;;;7.13;2.28;;;16.30;99.90;;;;;;4909339;29;20028;-58
2021/08/16 02:01:20;;;;;;;12.32;2.65;;;16.20;99.90;;;;;;4907783;29;20032;-60
2021/08/16 02:03:46;;;;;;;4.15;2.00;;;16.10;99.90;;;;;;4906334;29;20488;-55
2021/08/16 02:06:13;;;;;;;9.07;2.10;;;16.00;99.90;;;;;;4904267;29;20047;-57
2021/08/16 02:08:39;;;;;;;9.70;2.10;;;15.90;99.90;;;;;;4903088;29;20021;-56
2021/08/16 02:11:04;;;;;;;9.10;2.75;;;15.80;99.90;;;;;;4901977;29;20043;-54
2021/08/16 02:13:30;;;;;;;8.52;1.98;;;15.70;99.90;;;;;;4890880;29;20062;-56
2021/08/16 02:15:55;;;;;;;5.18;2.00;;;15.70;99.90;;;;;;4920830;29;20047;-53
2021/08/16 02:18:21;;;;;;;4.43;1.80;;;15.60;99.90;;;;;;4901273;29;20024;-60
2021/08/16 02:20:46;;;;;;;5.15;2.38;;;15.60;99.90;;;;;;4903991;29;20032;-58
2021/08/16 02:23:12;;;;;;;9.00;2.60;;;15.50;99.90;;;;;;4910239;29;20502;-57
2021/08/16 02:25:37;;;;;;;9.98;2.28;;;15.50;99.90;;;;;;4903470;29;20403;-60
2021/08/16 02:28:03;;;;;;;5.70;2.13;;;15.50;99.90;;;;;;4902830;29;20088;-59
2021/08/16 02:30:30;;;;;;;12.57;2.13;;;15.40;99.90;;;;;;4906256;29;20043;-58
2021/08/16 02:32:55;;;;;;;9.32;2.35;;;15.40;99.90;;;;;;4902694;29;20112;-58
2021/08/16 02:35:21;;;;;;;9.68;2.20;;;15.30;99.90;;;;;;4904759;29;20131;-54
2021/08/16 02:37:47;;;;;;;8.73;2.33;;;15.30;99.90;;;;;;4901705;29;20119;-55
2021/08/16 02:40:12;;;;;;;5.15;2.10;;;15.20;99.90;;;;;;4902921;29;20084;-57
2021/08/16 02:42:39;;;;;;;7.78;1.85;;;15.20;99.90;;;;;;4900636;29;20043;-53
2021/08/16 02:45:06;;;;;;;4.97;2.00;;;15.10;99.90;;;;;;4905781;29;20074;-56
2021/08/16 02:47:31;;;;;;;9.98;2.03;;;15.10;99.90;;;;;;4901837;29;20385;-53
2021/08/16 02:49:57;;;;;;;6.30;2.22;;;15.10;99.90;;;;;;4904845;29;20031;-54
2021/08/16 02:52:22;;;;;;;7.95;2.10;;;15.10;99.90;;;;;;4908969;29;20051;-53
2021/08/16 02:54:48;;;;;;;5.15;1.90;;;15.20;99.90;;;;;;4896013;29;20048;-55
2021/08/16 02:57:13;;;;;;;5.47;2.50;;;15.30;99.90;;;;;;4906183;29;20391;-54
2021/08/16 02:59:40;;;;;;;9.52;2.30;;;15.40;99.90;;;;;;4908583;29;20032;-57
2021/08/16 03:02:07;;;;;;;8.75;1.73;;;15.50;99.90;;;;;;4905034;29;20558;-57
2021/08/16 03:04:33;;;;;;;5.32;1.60;;;15.50;99.90;;;;;;4913493;29;20195;-54
2021/08/16 03:06:58;;;;;;;6.90;2.47;;;15.60;99.90;;;;;;4907254;29;20041;-55
2021/08/16 03:09:26;;;;;;;7.68;2.35;;;15.60;99.90;;;;;;4912143;29;20024;-58
2021/08/16 03:11:52;;;;;;;7.13;2.00;;;15.60;99.90;;;;;;4911083;29;20405;-55
2021/08/16 03:14:18;;;;;;;6.50;2.08;;;15.70;99.90;;;;;;4907535;29;20103;-57
2021/08/16 03:16:44;;;;;;;6.75;1.80;;;15.70;99.90;;;;;;4906136;29;20020;-53
2021/08/16 03:19:09;;;;;;;3.78;1.95;;;15.70;99.90;;;;;;4914932;29;20121;-53
2021/08/16 03:21:35;;;;;;;7.03;1.85;;;15.80;99.90;;;;;;4906534;29;20115;-55
2021/08/16 03:24:01;;;;;;;6.50;2.08;;;15.80;99.90;;;;;;4908162;29;20032;-56
2021/08/16 03:26:26;;;;;;;4.30;1.80;;;15.80;99.90;;;;;;4908283;29;20511;-53
2021/08/16 03:28:52;;;;;;;5.28;1.70;;;15.90;99.90;;;;;;4906376;29;20066;-55
2021/08/16 03:31:18;;;;;;;5.00;1.77;;;15.90;99.90;;;;;;4912744;29;20043;-59
2021/08/16 03:33:43;;;;;;;7.13;1.90;;;15.80;99.90;;;;;;4910079;29;20282;-57
2021/08/16 03:36:11;;;;;;;6.85;1.90;;;15.80;99.90;;;;;;4910392;29;20500;-58
2021/08/16 03:38:37;;;;;;;6.95;2.20;;;15.80;99.90;;;;;;4904470;29;20492;-56
2021/08/16 03:41:02;;;;;;;3.88;1.85;;;15.90;99.90;;;;;;4906052;29;20035;-54
2021/08/16 03:43:28;;;;;;;9.88;2.22;;;15.90;99.90;;;;;;4904309;29;20071;-57
2021/08/16 03:45:54;;;;;;;5.28;2.17;;;15.90;99.90;;;;;;4905507;29;20063;-56
2021/08/16 03:48:20;;;;;;;7.32;2.35;;;15.90;99.90;;;;;;4910096;29;20032;-57
2021/08/16 03:50:46;;;;;;;3.80;1.60;;;15.90;99.90;;;;;;4910228;29;20080;-55
2021/08/16 03:53:11;;;;;;;9.15;2.20;;;16.00;99.90;;;;;;4901021;29;20031;-57
2021/08/16 03:55:37;;;;;;;8.73;2.20;;;15.90;99.90;;;;;;4909784;29;20123;-53
2021/08/16 03:58:02;;;;;;;6.35;1.88;;;15.90;99.90;;;;;;4902461;29;20021;-54
2021/08/16 04:00:28;;;;;;;5.38;2.00;;;15.90;99.90;;;;;;4906321;29;20074;-54
2021/08/16 04:02:54;;;;;;;6.20;1.92;;;15.90;99.90;;;;;;4909426;29;20060;-56
2021/08/16 04:05:19;;;;;;;10.82;2.10;;;15.80;99.90;;;;;;4924712;29;20055;-57
2021/08/16 04:07:45;;;;;;;5.03;1.98;;;15.80;99.90;;;;;;4902349;29;20080;-57
2021/08/16 04:10:12;;;;;;;5.13;1.77;;;15.80;99.90;;;;;;4908333;29;20036;-55
2021/08/16 04:12:38;;;;;;;6.22;2.03;;;15.70;99.90;;;;;;4908148;29;20040;-57
2021/08/16 04:15:10;;;;;;;5.45;1.98;;;15.70;99.90;;;;;;4901939;29;20369;-56
2021/08/16 04:17:36;;;;;;;7.93;2.00;;;15.70;99.90;;;;;;4905539;29;20051;-56
2021/08/16 04:20:03;;;;;;;8.35;2.38;;;15.70;99.90;;;;;;4914438;29;20024;-58
2021/08/16 04:22:29;;;;;;;6.57;2.35;;;15.70;99.90;;;;;;4903788;29;20460;-57
2021/08/16 04:24:55;;;;;;;6.55;1.75;;;15.70;99.90;;;;;;4911262;29;20039;-57
2021/08/16 04:27:20;;;;;;;9.40;2.03;;;15.70;99.90;;;;;;4902439;29;20032;-58
2021/08/16 04:29:46;;;;;;;4.90;1.95;;;15.80;99.90;;;;;;4901646;29;20024;-59
2021/08/16 04:32:11;;;;;;;6.25;2.05;;;15.70;99.90;;;;;;4903241;29;20032;-57
2021/08/16 04:34:37;;;;;;;5.63;2.08;;;15.70;99.90;;;;;;4903030;29;20033;-58
2021/08/16 04:37:03;;;;;;;8.95;2.35;;;15.70;99.90;;;;;;4906082;29;20119;-58
2021/08/16 04:39:28;;;;;;;9.30;2.58;;;15.70;99.90;;;;;;4904762;29;20512;-58
2021/08/16 04:41:54;;;;;;;6.38;2.10;;;15.70;99.90;;;;;;4904785;29;20368;-57
2021/08/16 04:44:19;;;;;;;7.97;2.00;;;15.70;99.90;;;;;;4904057;29;20035;-58
2021/08/16 04:46:45;;;;;;;5.35;2.05;;;15.70;99.90;;;;;;4910953;29;20036;-58
2021/08/16 04:49:11;;;;;;;5.75;2.13;;;15.70;99.90;;;;;;4910002;29;20028;-56
2021/08/16 04:51:36;;;;;;;7.25;2.50;;;15.70;99.90;;;;;;4909690;29;20168;-59
2021/08/16 04:54:02;;;;;;;5.05;1.90;;;15.80;99.90;;;;;;4889603;29;20803;-57
2021/08/16 04:56:27;;;;;;;7.80;2.00;;;15.80;99.90;;;;;;4908491;29;20028;-57
2021/08/16 04:58:53;;;;;;;8.88;2.40;;;15.80;99.90;;;;;;4906492;29;20552;-57
2021/08/16 05:01:18;;;;;;;6.72;2.50;;;15.90;99.90;;;;;;4908640;29;20493;-57
2021/08/16 05:03:44;;;;;;;6.78;2.25;;;15.90;99.90;;;;;;4906507;29;20436;-57
2021/08/16 05:06:09;;;;;;;10.38;2.38;;;16.00;99.90;;;;;;4904321;29;20518;-58
2021/08/16 05:08:36;;;;;;;6.80;2.28;;;16.00;99.90;;;;;;4909274;29;20484;-57
2021/08/16 05:11:04;;;;;;;12.20;2.45;;;16.00;99.90;;;;;;4904916;29;20458;-54
2021/08/16 05:13:31;;;;;;;6.85;2.70;;;16.00;99.90;;;;;;4910908;29;20032;-59
2021/08/16 05:15:57;;;;;;;7.60;2.10;;;16.10;99.90;;;;;;4906605;29;20093;-58
2021/08/16 05:18:23;;;;;;;6.85;2.65;;;16.10;99.90;;;;;;4907949;29;20032;-58
2021/08/16 05:20:49;;;;;;;10.57;1.83;;;16.10;99.90;;;;;;4902214;29;20024;-58
2021/08/16 05:23:17;;;;;;;7.93;2.42;;;16.10;99.90;;;;;;4916429;29;20075;-53
2021/08/16 05:25:43;;;;;;;9.75;2.47;;;16.10;99.90;;;;;;4909030;29;20579;-56
2021/08/16 05:28:09;;;;;;;6.20;2.05;;;16.10;99.90;;;;;;4908511;29;20036;-57
2021/08/16 05:30:34;;;;;;;8.18;2.08;;;16.20;99.90;;;;;;4903350;29;20051;-57
2021/08/16 05:33:00;;;;;;;9.32;2.28;;;16.20;99.90;;;;;;4905140;29;20032;-58
2021/08/16 05:35:26;;;;;;;5.85;2.67;;;16.20;99.90;;;;;;4908082;29;20125;-56
2021/08/16 05:37:51;;;;;;;9.73;2.45;;;16.20;99.90;;;;;;4901016;29;20036;-58
2021/08/16 05:40:17;;;;;;;7.38;2.15;;;16.20;99.90;;;;;;4912568;29;20024;-57
2021/08/16 05:42:43;;;;;;;8.50;2.10;;;16.30;99.90;;;;;;4906696;29;20503;-56
2021/08/16 05:45:09;;;;;;;8.52;2.30;;;16.30;99.90;;;;;;4909057;29;20415;-57
2021/08/16 05:47:35;;;;;;;5.30;2.08;;;16.30;99.90;;;;;;4906555;29;20036;-56
2021/08/16 05:50:00;;;;;;;7.43;2.65;;;16.30;99.90;;;;;;4909719;29;20039;-56
2021/08/16 05:52:26;;;;;;;6.32;2.38;;;16.30;99.90;;;;;;4905628;29;20028;-54
2021/08/16 05:54:52;;;;;;;6.15;2.28;;;16.20;99.90;;;;;;4892414;29;20048;-56
2021/08/16 05:57:17;;;;;;;7.32;2.42;;;16.20;99.90;;;;;;4902085;29;20028;-59
2021/08/16 05:59:43;;;;;;;5.78;2.00;;;16.30;99.90;;;;;;4904621;29;20028;-59
2021/08/16 06:02:08;;;;;;;12.07;2.80;;;16.20;99.90;;;;;;4903995;29;20036;-58
2021/08/16 06:04:34;;;;;;;7.35;2.40;;;16.30;99.90;;;;;;4908037;29;20070;-58
2021/08/16 06:07:00;;;;;;;8.95;2.78;;;16.20;99.90;;;;;;4903510;29;20059;-59
2021/08/16 06:09:25;;;;;;;13.73;4.43;;;16.30;99.90;;;;;;4911707;29;20024;-58
2021/08/16 06:11:51;;;;;;;9.68;2.90;;;16.30;99.90;;;;;;4908507;29;20043;-54
2021/08/16 06:14:16;;;;;;;11.15;3.45;;;16.40;99.90;;;;;;4911434;29;20428;-56
2021/08/16 06:16:42;;;;;;;12.38;3.53;;;16.40;99.90;;;;;;4907313;29;20753;-57
2021/08/16 06:19:08;;;;;;;8.55;2.75;;;16.40;99.90;;;;;;4907679;29;20027;-57
2021/08/16 06:21:39;;;;;;;15.30;4.00;;;16.50;99.90;;;;;;4908952;29;20687;-51
2021/08/16 06:24:05;;;;;;;8.45;3.28;;;16.50;99.90;;;;;;4910290;29;20027;-54
2021/08/16 06:26:31;;;;;;;8.90;2.83;;;16.50;99.90;;;;;;4910342;29;20028;-57
2021/08/16 06:28:56;;;;;;;9.50;3.03;;;16.50;99.90;;;;;;4912529;29;20020;-59
2021/08/16 06:31:22;;;;;;;6.32;2.22;;;16.50;99.90;;;;;;4912355;29;20030;-58
2021/08/16 06:33:47;;;;;;;10.57;3.58;;;16.60;99.90;;;;;;4910359;29;20391;-57
2021/08/16 06:36:13;;;;;;;11.95;3.63;;;16.60;99.90;;;;;;4908135;29;20036;-56
2021/08/16 06:38:39;;;;;;;14.82;3.92;;;16.60;99.90;;;;;;4914747;29;20522;-56
2021/08/16 06:41:04;;;;;;;9.30;2.72;;;16.60;99.90;;;;;;4911165;29;20531;-59
2021/08/16 06:43:32;;;;;;;11.23;3.08;;;16.70;99.90;;;;;;4915637;29;20052;-59
2021/08/16 06:45:57;;;;;;;14.52;3.58;;;16.80;99.90;;;;;;4907221;29;20050;-57
2021/08/16 06:48:23;;;;;;;14.90;3.13;;;17.00;99.90;;;;;;4912338;29;20778;-57
2021/08/16 06:50:48;;;;;;;10.80;2.90;;;17.10;99.90;;;;;;4909567;29;20051;-56
2021/08/16 06:53:15;;;;;;;11.77;2.67;;;17.10;99.90;;;;;;4910397;29;20028;-56
2021/08/16 06:55:42;;;;;;;9.85;2.72;;;17.10;99.90;;;;;;4894438;29;20044;-57
2021/08/16 06:58:07;;;;;;;12.63;3.10;;;17.20;99.90;;;;;;4904457;29;20439;-56
2021/08/16 07:00:33;;;;;;;12.18;3.15;;;17.20;99.90;;;;;;4914148;29;20115;-56
2021/08/16 07:02:59;;;;;;;14.18;3.60;;;17.30;99.90;;;;;;4910325;29;20389;-59
2021/08/16 07:05:25;;;;;;;10.50;2.75;;;17.30;99.90;;;;;;4912141;29;20028;-57
2021/08/16 07:07:53;;;;;;;8.98;2.97;;;17.30;99.90;;;;;;4916879;29;20019;-57
2021/08/16 07:10:20;;;;;;;10.18;2.95;;;17.40;99.90;;;;;;4912815;29;20820;-58
2021/08/16 07:12:46;;;;;;;7.65;2.47;;;17.40;99.90;;;;;;4909928;29;20826;-57
2021/08/16 07:15:12;;;;;;;8.55;2.33;;;17.40;99.90;;;;;;4911558;29;20124;-59
2021/08/16 07:17:38;;;;;;;7.95;2.22;;;17.30;99.90;;;;;;4909005;29;20066;-58
2021/08/16 07:20:05;;;;;;;3.28;1.65;;;17.30;99.90;;;;;;4905322;29;20048;-58
2021/08/16 07:22:30;;;;;;;10.45;2.28;;;17.30;99.90;;;;;;4903754;29;20043;-55
2021/08/16 07:24:56;;;;;;;4.68;2.35;;;17.40;99.90;;;;;;4906187;29;20037;-58
2021/08/16 07:27:22;;;;;;;8.15;1.98;;;17.30;99.90;;;;;;4907695;29;20032;-57
2021/08/16 07:29:47;;;;;;;6.55;2.03;;;17.30;99.90;;;;;;4910497;29;20473;-58
2021/08/16 07:32:13;;;;;;;5.47;1.58;;;17.40;99.90;;;;;;4911194;29;20056;-57
2021/08/16 07:34:39;;;;;;;5.32;1.92;;;17.50;99.90;;;;;;4912254;29;20025;-55
2021/08/16 07:37:08;;;;;;;6.75;1.60;;;17.50;99.90;;;;;;4905834;29;20488;-56
2021/08/16 07:39:34;;;;;;;10.50;1.90;;;17.60;99.90;;;;;;4913679;29;20056;-54
2021/08/16 07:41:59;;;;;;;7.30;1.90;;;17.70;99.90;;;;;;4910472;29;20459;-56
2021/08/16 07:44:25;;;;;;;6.97;1.65;;;17.80;99.90;;;;;;4887765;29;20036;-59
2021/08/16 07:46:51;;;;;;;4.90;1.50;;;17.90;99.90;;;;;;4887475;29;20036;-57
2021/08/16 07:49:16;;;;;;;3.58;1.42;;;18.20;99.90;;;;;;4890777;29;20056;-57
2021/08/16 07:51:42;;;;;;;3.20;1.20;;;18.50;99.90;;;;;;4894089;29;20116;-55
2021/08/16 07:54:08;;;;;;;5.85;1.60;;;18.70;99.90;;;;;;4884884;29;20041;-57
2021/08/16 07:56:33;;;;;;;8.00;1.92;;;19.00;99.90;;;;;;4889090;29;20101;-57
2021/08/16 07:58:59;;;;;;;4.05;1.50;;;19.10;99.90;;;;;;4893281;29;20021;-58
2021/08/16 08:01:25;;;;;;;4.15;1.58;;;19.30;99.90;;;;;;4888507;29;20025;-54
2021/08/16 08:03:51;;;;;;;4.18;1.63;;;19.40;99.90;;;;;;4894331;29;20021;-56
2021/08/16 08:06:17;;;;;;;9.90;1.60;;;19.60;99.90;;;;;;4894935;29;20032;-58
2021/08/16 08:08:44;;;;;;;2.90;1.60;;;19.30;99.90;;;;;;4893236;29;20556;-59
2021/08/16 08:11:10;;;;;;;5.65;1.95;;;19.20;99.90;;;;;;4889060;29;20029;-58
2021/08/16 08:13:37;;;;;;;4.55;1.40;;;20.00;99.90;;;;;;4894944;29;20120;-50
2021/08/16 08:16:03;;;;;;;3.38;1.55;;;20.60;99.90;;;;;;4890638;29;20120;-60
2021/08/16 08:18:28;;;;;;;3.80;1.23;;;21.00;99.60;;;;;;4890338;29;20151;-59
2021/08/16 08:20:54;;;;;;;5.60;1.50;;;21.30;99.00;;;;;;4888794;29;20168;-54
2021/08/16 08:23:20;;;;;;;3.20;1.05;;;21.00;98.00;;;;;;4895412;29;20051;-56
2021/08/16 08:25:45;;;;;;;6.68;1.85;;;20.70;98.80;;;;;;4887004;29;20040;-57
2021/08/16 08:28:12;;;;;;;6.07;1.52;;;20.60;99.40;;;;;;4894834;29;20036;-57
2021/08/16 08:30:39;;;;;;;9.05;1.60;;;20.40;99.60;;;;;;4887787;29;20041;-57
2021/08/16 08:33:05;;;;;;;3.38;1.42;;;20.40;99.50;;;;;;4906929;29;20036;-59
2021/08/16 08:35:30;;;;;;;5.40;1.63;;;20.20;99.60;;;;;;4912006;29;20039;-57
2021/08/16 08:37:56;;;;;;;6.35;2.40;;;20.00;99.90;;;;;;4906721;29;20095;-59
2021/08/16 08:40:22;;;;;;;4.22;1.88;;;19.80;99.90;;;;;;4911810;29;20144;-57
2021/08/16 08:42:52;;;;;;;6.05;2.63;;;19.70;99.90;;;;;;4910918;29;20072;-60
2021/08/16 08:45:20;;;;;;;5.55;1.85;;;19.50;99.90;;;;;;4899301;29;20048;-58
2021/08/16 08:47:47;;;;;;;5.20;1.85;;;19.70;99.90;;;;;;4911216;29;20130;-59
2021/08/16 08:50:14;;;;;;;6.85;1.95;;;20.00;99.90;;;;;;4911610;29;20032;-58
2021/08/16 08:52:40;;;;;;;5.63;1.60;;;20.10;99.90;;;;;;4912879;29;20476;-58
2021/08/16 08:55:06;;;;;;;4.70;2.03;;;19.90;99.90;;;;;;4909417;29;20028;-58
2021/08/16 08:57:32;;;;;;;4.60;1.60;;;19.90;99.90;;;;;;4913587;29;20071;-57
2021/08/16 08:59:58;;;;;;;5.40;1.52;;;19.70;99.90;;;;;;4912428;29;20021;-56
2021/08/16 09:02:23;;;;;;;7.65;2.75;;;19.70;99.90;;;;;;4912580;29;20040;-57
2021/08/16 09:04:55;;;;;;;6.65;2.08;;;19.40;99.90;;;;;;4908019;29;20858;-54
2021/08/16 09:07:31;;;;;;;7.18;2.10;;;19.30;99.90;;;;;;4912966;29;20506;-52
2021/08/16 09:09:56;;;;;;;12.27;2.40;;;19.20;99.90;;;;;;4901257;29;20028;-59
2021/08/16 09:12:33;;;;;;;3.80;1.83;;;19.30;99.90;;;;;;4912453;29;20035;-56
2021/08/16 09:14:58;;;;;;;5.07;2.08;;;19.20;99.90;;;;;;4905898;29;20033;-58
2021/08/16 09:17:32;;;;;;;5.97;2.05;;;19.20;99.90;;;;;;4907517;29;20103;-53
2021/08/16 09:20:01;;;;;;;10.57;2.03;;;19.00;99.90;;;;;;4906557;29;20063;-58
2021/08/16 09:22:33;;;;;;;11.35;2.55;;;18.90;99.90;;;;;;4912713;29;20032;-58
2021/08/16 09:25:08;;;;;;;13.98;2.30;;;18.90;99.90;;;;;;4907045;29;20032;-58
2021/08/16 09:27:44;;;;;;;6.50;2.08;;;18.80;99.90;;;;;;4903811;29;20031;-54
2021/08/16 09:30:11;;;;;;;9.32;3.20;;;18.80;99.90;;;;;;4908589;29;20480;-55
2021/08/16 09:32:36;;;;;;;7.75;2.70;;;19.00;99.90;;;;;;4911977;29;20389;-57
2021/08/16 09:35:08;;;;;;;6.13;2.50;;;19.00;99.90;;;;;;4907111;29;20556;-57
2021/08/16 09:37:35;;;;;;;9.52;2.33;;;19.30;99.90;;;;;;4911267;29;20495;-56
2021/08/16 09:40:10;;;;;;;5.25;2.03;;;19.50;99.90;;;;;;4910004;29;20039;-58
2021/08/16 09:42:44;;;;;;;13.00;2.40;;;19.70;99.90;;;;;;4911832;29;20036;-59
2021/08/16 09:45:11;;;;;;;;;;;20.00;99.90;;;;;;4895552;29;20024;-57
2021/08/16 09:47:44;;;;;;;5.80;1.90;;;20.60;99.90;;;;;;4910366;29;19926;-54
2021/08/16 09:50:12;;;;;;;5.47;1.70;;;21.20;99.20;;;;;;4906075;29;20051;-57
2021/08/16 09:52:38;;;;;;;3.95;1.60;;;21.50;98.20;;;;;;4902880;29;20040;-58
2021/08/16 09:55:05;;;;;;;5.07;1.80;;;21.60;98.30;;;;;;4911089;29;20068;-58
2021/08/16 09:57:31;;;;;;;6.35;1.58;;;21.40;98.00;;;;;;4912212;29;20488;-58
2021/08/16 09:59:57;;;;;;;3.40;1.63;;;21.60;98.70;;;;;;4910775;29;20024;-58
2021/08/16 10:02:26;;;;;;;6.72;1.90;;;21.60;98.50;;;;;;4911851;29;20036;-60
2021/08/16 10:04:55;;;;;;;7.65;2.63;;;21.40;98.40;;;;;;4910397;29;20028;-60
2021/08/16 10:07:26;;;;;;;7.43;2.00;;;21.50;98.00;;;;;;4912368;29;20032;-60
2021/08/16 10:09:55;;;;;;;8.27;2.05;;;21.60;98.00;;;;;;4901826;29;20033;-58
2021/08/16 10:12:21;;;;;;;6.28;2.20;;;21.70;97.20;;;;;;4909002;29;20043;-58
2021/08/16 10:14:49;;;;;;;4.40;1.55;;;21.60;97.30;;;;;;4911790;29;20028;-58
2021/08/16 10:17:16;;;;;;;7.07;2.22;;;21.40;97.80;;;;;;4912326;29;20392;-57
2021/08/16 10:19:43;;;;;;;6.88;2.00;;;20.90;98.00;;;;;;4911528;29;20040;-58
2021/08/16 10:22:09;;;;;;;6.63;1.67;;;20.80;98.70;;;;;;4911744;29;20032;-56
2021/08/16 10:24:35;;;;;;;8.02;1.95;;;20.60;99.10;;;;;;4906773;29;20037;-57
2021/08/16 10:27:03;;;;;;;13.52;2.40;;;20.80;99.00;;;;;;4910130;29;20036;-59
2021/08/16 10:29:30;;;;;;;7.95;1.80;;;20.90;98.10;;;;;;4908990;29;20039;-60
2021/08/16 10:31:59;;;;;;;3.13;1.58;;;21.00;98.00;;;;;;4905784;29;20064;-57
2021/08/16 10:34:25;;;;;;;5.25;1.58;;;21.10;98.00;;;;;;4908153;29;20053;-59
2021/08/16 10:36:57;;;;;;;7.68;1.95;;;21.30;97.40;;;;;;4906806;29;20059;-59
2021/08/16 10:39:33;;;;;;;3.78;1.80;;;21.40;97.10;;;;;;4901645;29;20021;-59
2021/08/16 10:42:11;;;;;;;9.75;1.95;;;21.40;97.30;;;;;;4906075;29;20404;-55
2021/08/16 10:44:39;;;;;;;12.52;2.22;;;21.40;97.20;;;;;;4911774;29;20028;-58
2021/08/16 10:47:05;;;;;;;5.78;2.17;;;21.40;97.00;;;;;;4890177;29;20073;-57
2021/08/16 10:49:36;;;;;;;7.78;1.73;;;21.50;96.80;;;;;;4912173;29;20064;-58
2021/08/16 10:52:03;;;;;;;5.18;1.77;;;21.70;97.40;;;;;;4912472;29;20032;-59
2021/08/16 10:54:33;;;;;;;9.88;1.70;;;21.90;97.20;;;;;;4908910;29;20047;-57
2021/08/16 10:57:00;;;;;;;7.20;2.15;;;21.90;97.10;;;;;;4905854;29;20492;-55
2021/08/16 10:59:27;;;;;;;3.30;1.73;;;21.80;96.80;;;;;;4901593;29;20595;-58
2021/08/16 11:01:54;;;;;;;5.47;1.90;;;21.50;96.20;;;;;;4911632;29;20542;-58
2021/08/16 11:04:50;;;;;;;12.05;3.15;;;21.40;96.30;;;;;;4903791;29;20629;-59
2021/08/16 11:07:23;;;;;;;6.30;2.03;;;21.10;97.00;;;;;;4910201;29;20040;-58
2021/08/16 11:09:56;;;;;;;8.00;2.13;;;21.20;96.90;;;;;;4911167;29;20103;-59
2021/08/16 11:12:32;;;;;;;8.30;2.30;;;21.00;96.80;;;;;;4913552;29;20040;-58
2021/08/16 11:14:57;;;;;;;7.20;2.08;;;20.90;97.30;;;;;;4913188;29;20373;-60
2021/08/16 11:17:27;;;;;;;5.82;2.42;;;21.00;97.50;;;;;;4909067;29;20051;-60
2021/08/16 11:19:57;;;;;;;6.70;2.45;;;21.00;97.70;;;;;;4907350;29;20028;-57
2021/08/16 11:22:23;;;;;;;6.15;2.15;;;21.00;97.60;;;;;;4909105;29;20028;-57
2021/08/16 11:24:49;;;;;;;9.55;2.10;;;21.10;97.70;;;;;;4912180;29;20031;-60
2021/08/16 11:27:19;;;;;;;7.55;2.20;;;21.30;96.90;;;;;;4912195;29;20032;-58
2021/08/16 11:30:02;;;;;;;14.27;2.65;;;21.30;97.40;;;;;;4914235;29;20028;-58
2021/08/16 11:32:29;;;;;;;10.98;3.00;;;21.10;97.60;;;;;;4910481;29;20079;-58
2021/08/16 11:34:56;;;;;;;4.78;2.20;;;21.00;97.30;;;;;;4913969;29;20028;-56
2021/08/16 11:37:28;;;;;;;5.53;2.40;;;20.90;97.50;;;;;;4908233;29;20119;-57
2021/08/16 11:39:54;;;;;;;5.20;2.05;;;20.50;99.80;;;;;;4911786;29;20028;-55
2021/08/16 11:42:22;;;;;;;9.75;3.15;;;20.00;99.90;;;;;;4906980;29;20036;-54
2021/08/16 11:45:06;;;;;;;3.75;2.58;;;19.50;99.90;;;;;;4914124;29;20028;-57
2021/08/16 11:47:39;;;;;;;;;;;19.10;99.90;;;;;;4891936;29;20074;-55
2021/08/16 11:50:07;;;;;;;6.00;3.38;;;19.20;99.90;;;;;;4907060;29;20566;-55
2021/08/16 11:52:33;;;;;;;5.93;3.20;;;19.50;99.90;;;;;;4912827;29;20036;-59
2021/08/16 11:54:59;;;;;;;8.00;2.50;;;19.30;99.90;;;;;;4914141;29;20127;-60
2021/08/16 11:57:26;;;;;;;8.77;2.53;;;19.00;99.90;;;;;;4907405;29;20551;-59
2021/08/16 11:59:56;;;;;;;3.72;2.15;;;18.70;99.90;;;;;;4914446;29;20024;-55
2021/08/16 12:02:23;;;;;;;4.28;2.03;;;18.40;99.90;;;;;;4906270;29;20036;-57
2021/08/16 12:04:52;;;;;;;3.72;1.88;;;18.20;99.90;;;;;;4909605;29;20029;-57
2021/08/16 12:07:19;;;;;;;2.35;1.55;;;18.00;99.90;;;;;;4904356;29;20574;-55
2021/08/16 12:09:45;;;;;;;2.33;1.40;;;17.70;99.90;;;;;;4912975;29;20665;-57
2021/08/16 12:12:11;;;;;;;3.70;1.80;;;17.50;99.90;;;;;;4913893;29;20055;-58
2021/08/16 12:14:38;;;;;;;2.22;1.45;;;17.40;99.90;;;;;;4910677;29;20091;-57
2021/08/16 12:17:05;;;;;;;4.00;1.80;;;17.40;99.90;;;;;;4905990;29;20044;-56
2021/08/16 12:19:31;;;;;;;2.97;1.45;;;17.50;99.90;;;;;;4911786;29;20028;-56
2021/08/16 12:22:05;;;;;;;1.38;1.17;;;17.50;99.90;;;;;;4908248;29;20039;-58
2021/08/16 12:24:32;;;;;;;2.17;1.30;;;17.60;99.90;;;;;;4906531;29;20407;-57
2021/08/16 12:27:02;;;;;;;8.02;1.48;;;17.80;99.90;;;;;;4908903;29;20032;-58
2021/08/16 12:29:37;;;;;;;3.70;1.85;;;17.90;99.90;;;;;;4911923;29;20039;-58
2021/08/16 12:32:13;;;;;;;2.95;1.83;;;18.00;99.90;;;;;;4911460;29;20058;-59
2021/08/16 12:34:39;;;;;;;2.42;1.40;;;18.00;99.90;;;;;;4913343;29;20058;-58
2021/08/16 12:37:06;;;;;;;2.58;1.77;;;18.20;99.90;;;;;;4904629;29;20669;-56
2021/08/16 12:39:33;;;;;;;3.13;2.28;;;18.30;99.90;;;;;;4910971;29;20431;-58
2021/08/16 12:42:06;;;;;;;2.42;2.00;;;18.40;99.90;;;;;;4906849;29;20056;-57
2021/08/16 12:44:32;;;;;;;4.75;2.60;;;18.40;99.90;;;;;;4910037;29;20036;-58